Time,TemperatureF,DewpointF,PressureIn,WindDirection,WindDirectionDegrees,WindSpeedMPH,WindSpeedGustMPH,Humidity,HourlyPrecipIn,Conditions,Clouds,dailyrainin,SoftwareType,DateUTC
2013-01-16 00:00:00,21.2,17.4,29.18,West,263,0.0,0.0,85,0.00,,,0.00,VWS V14.00,2013-01-16 05:00:00,
2013-01-16 00:01:00,21.2,17.4,29.18,West,263,0.0,0.0,85,0.00,,,0.00,VWS V14.00,2013-01-16 05:01:00,
2013-01-16 00:02:00,21.2,17.4,29.18,West,263,0.0,0.0,85,0.00,,,0.00,VWS V14.00,2013-01-16 05:02:00,
2013-01-16 00:07:00,21.0,17.2,29.18,West,263,0.0,0.0,85,0.00,,,0.00,VWS V14.00,2013-01-16 05:07:00,
2013-01-16 00:12:00,21.0,17.2,29.18,West,263,0.0,0.0,85,0.00,,,0.00,VWS V14.00,2013-01-16 05:12:00,
2013-01-16 00:17:00,20.8,17.3,29.15,West,263,0.0,0.0,86,0.00,,,0.00,VWS V14.00,2013-01-16 05:17:00,
2013-01-16 00:22:00,20.7,17.1,29.15,West,263,0.0,0.0,86,0.00,,,0.00,VWS V14.00,2013-01-16 05:22:00,
2013-01-16 00:27:00,20.7,17.1,29.15,West,263,0.0,0.0,86,0.00,,,0.00,VWS V14.00,2013-01-16 05:27:00,
2013-01-16 00:32:00,20.5,16.7,29.15,West,263,0.0,0.0,85,0.00,,,0.00,VWS V14.00,2013-01-16 05:32:00,
2013-01-16 00:37:00,20.3,16.5,29.15,West,263,0.0,0.0,85,0.00,,,0.00,VWS V14.00,2013-01-16 05:37:00,
2013-01-16 00:42:00,20.3,16.8,29.15,West,262,0.0,0.0,86,0.00,,,0.00,VWS V14.00,2013-01-16 05:42:00,
2013-01-16 00:47:00,20.3,17.3,29.15,West,262,0.0,0.0,88,0.00,,,0.00,VWS V14.00,2013-01-16 05:47:00,
2013-01-16 00:52:00,20.3,17.3,29.15,West,263,0.0,0.0,88,0.00,,,0.00,VWS V14.00,2013-01-16 05:52:00,
2013-01-16 00:57:00,20.3,17.6,29.15,West,263,0.0,0.0,89,0.00,,,0.00,VWS V14.00,2013-01-16 05:57:00,
2013-01-16 01:02:00,20.3,17.6,29.15,West,262,0.0,0.0,89,0.00,,,0.00,VWS V14.00,2013-01-16 06:02:00,
2013-01-16 01:07:00,20.3,17.6,29.15,West,262,0.0,0.0,89,0.00,,,0.00,VWS V14.00,2013-01-16 06:07:00,
2013-01-16 01:24:00,19.9,17.2,29.12,West,262,0.0,0.0,89,0.00,,,0.00,VWS V14.00,2013-01-16 06:24:00,
2013-01-16 01:29:00,19.8,17.0,29.12,West,263,0.0,0.0,89,0.00,,,0.00,VWS V14.00,2013-01-16 06:29:00,
2013-01-16 01:30:00,19.8,17.0,29.12,West,263,0.0,0.0,89,0.00,,,0.00,VWS V14.00,2013-01-16 06:30:00,
2013-01-16 01:34:00,19.8,17.0,29.12,West,262,0.0,0.0,89,0.00,,,0.00,VWS V14.00,2013-01-16 06:34:00,
2013-01-16 01:39:00,19.6,16.9,29.12,West,262,0.0,0.0,89,0.00,,,0.00,VWS V14.00,2013-01-16 06:39:00,
2013-01-16 01:44:00,19.6,17.1,29.12,West,262,0.0,0.0,90,0.00,,,0.00,VWS V14.00,2013-01-16 06:44:00,
2013-01-16 01:49:00,19.6,17.1,29.12,West,263,0.0,0.0,90,0.00,,,0.00,VWS V14.00,2013-01-16 06:49:00,
2013-01-16 01:54:00,19.6,17.1,29.12,West,263,0.0,0.0,90,0.00,,,0.00,VWS V14.00,2013-01-16 06:54:00,
2013-01-16 01:59:00,19.4,17.0,29.12,West,263,0.0,0.0,90,0.00,,,0.00,VWS V14.00,2013-01-16 06:59:00,
2013-01-16 02:00:00,19.4,17.2,29.12,West,263,0.0,0.0,91,0.00,,,0.00,VWS V14.00,2013-01-16 07:00:00,
2013-01-16 02:04:00,19.4,17.2,29.12,West,263,0.0,0.0,91,0.00,,,0.00,VWS V14.00,2013-01-16 07:04:00,
2013-01-16 02:09:00,19.2,17.0,29.12,West,262,0.0,0.0,91,0.00,,,0.00,VWS V14.00,2013-01-16 07:09:00,
2013-01-16 02:14:00,19.2,17.0,29.12,West,263,0.0,0.0,91,0.00,,,0.00,VWS V14.00,2013-01-16 07:14:00,
2013-01-16 02:19:00,19.2,17.0,29.12,West,263,0.0,0.0,91,0.00,,,0.00,VWS V14.00,2013-01-16 07:19:00,
2013-01-16 02:24:00,19.2,17.0,29.12,West,263,0.0,0.0,91,0.00,,,0.00,VWS V14.00,2013-01-16 07:24:00,
2013-01-16 02:29:00,19.2,17.3,29.09,West,263,0.0,0.0,92,0.00,,,0.00,VWS V14.00,2013-01-16 07:29:00,
2013-01-16 02:30:00,19.2,17.3,29.09,West,262,0.0,0.0,92,0.00,,,0.00,VWS V14.00,2013-01-16 07:30:00,
2013-01-16 02:34:00,19.2,17.3,29.09,West,263,0.0,0.0,92,0.00,,,0.00,VWS V14.00,2013-01-16 07:34:00,
2013-01-16 02:39:00,19.0,17.1,29.09,West,262,0.0,0.0,92,0.00,,,0.00,VWS V14.00,2013-01-16 07:39:00,
2013-01-16 02:44:00,19.0,17.1,29.12,West,263,0.0,0.0,92,0.00,,,0.00,VWS V14.00,2013-01-16 07:44:00,
2013-01-16 02:49:00,18.7,16.8,29.12,West,262,0.0,0.0,92,0.00,,,0.00,VWS V14.00,2013-01-16 07:49:00,
2013-01-16 02:54:00,18.7,16.8,29.12,West,263,0.0,0.0,92,0.00,,,0.00,VWS V14.00,2013-01-16 07:54:00,
2013-01-16 02:59:00,18.5,16.6,29.09,West,262,0.0,0.0,92,0.00,,,0.00,VWS V14.00,2013-01-16 07:59:00,
2013-01-16 03:00:00,18.5,16.6,29.09,West,262,0.0,0.0,92,0.00,,,0.00,VWS V14.00,2013-01-16 08:00:00,
2013-01-16 03:04:00,18.5,16.3,29.09,West,263,0.0,0.0,91,0.00,,,0.00,VWS V14.00,2013-01-16 08:04:00,
2013-01-16 03:09:00,18.5,16.3,29.09,West,262,0.0,0.0,91,0.00,,,0.00,VWS V14.00,2013-01-16 08:09:00,
2013-01-16 03:14:00,18.3,16.1,29.09,West,263,0.0,0.0,91,0.00,,,0.00,VWS V14.00,2013-01-16 08:14:00,
2013-01-16 03:26:00,18.3,16.1,29.09,West,263,0.0,0.0,91,0.00,,,0.00,VWS V14.00,2013-01-16 08:26:00,
2013-01-16 03:31:00,18.3,16.1,29.09,West,263,0.0,0.0,91,0.00,,,0.00,VWS V14.00,2013-01-16 08:31:00,
2013-01-16 03:36:00,18.3,16.1,29.09,West,263,0.0,0.0,91,0.00,,,0.00,VWS V14.00,2013-01-16 08:36:00,
2013-01-16 03:41:00,18.3,16.1,29.09,West,263,0.0,0.0,91,0.00,,,0.00,VWS V14.00,2013-01-16 08:41:00,
2013-01-16 03:46:00,18.3,16.1,29.09,West,262,0.0,0.0,91,0.00,,,0.00,VWS V14.00,2013-01-16 08:46:00,
2013-01-16 03:51:00,18.3,16.4,29.09,West,262,0.0,0.0,92,0.00,,,0.00,VWS V14.00,2013-01-16 08:51:00,
2013-01-16 03:56:00,18.5,16.6,29.09,West,262,0.0,0.0,92,0.00,,,0.00,VWS V14.00,2013-01-16 08:56:00,
2013-01-16 04:01:00,18.7,17.0,29.06,West,262,0.0,0.0,93,0.00,,,0.00,VWS V14.00,2013-01-16 09:01:00,
2013-01-16 04:06:00,18.7,17.0,29.06,West,263,0.0,0.0,93,0.00,,,0.00,VWS V14.00,2013-01-16 09:06:00,
2013-01-16 04:11:00,18.7,17.0,29.06,West,263,0.0,0.0,93,0.00,,,0.00,VWS V14.00,2013-01-16 09:11:00,
2013-01-16 04:16:00,18.7,17.0,29.06,West,263,0.0,0.0,93,0.00,,,0.00,VWS V14.00,2013-01-16 09:16:00,
2013-01-16 04:21:00,18.7,17.2,29.06,West,263,0.0,0.0,94,0.00,,,0.00,VWS V14.00,2013-01-16 09:21:00,
2013-01-16 04:26:00,18.7,17.2,29.06,West,263,0.0,0.0,94,0.00,,,0.00,VWS V14.00,2013-01-16 09:26:00,
2013-01-16 04:31:00,18.5,16.8,29.06,West,262,0.0,0.0,93,0.00,,,0.00,VWS V14.00,2013-01-16 09:31:00,
2013-01-16 04:36:00,18.5,16.8,29.06,West,263,0.0,0.0,93,0.00,,,0.00,VWS V14.00,2013-01-16 09:36:00,
2013-01-16 04:41:00,18.5,16.8,29.06,West,263,0.0,0.0,93,0.00,,,0.00,VWS V14.00,2013-01-16 09:41:00,
2013-01-16 04:46:00,18.5,16.8,29.06,West,263,0.0,0.0,93,0.00,,,0.00,VWS V14.00,2013-01-16 09:46:00,
2013-01-16 04:51:00,18.5,16.8,29.06,West,262,0.0,0.0,93,0.00,,,0.00,VWS V14.00,2013-01-16 09:51:00,
2013-01-16 04:56:00,18.7,17.0,29.06,West,262,0.0,0.0,93,0.00,,,0.00,VWS V14.00,2013-01-16 09:56:00,
2013-01-16 05:01:00,18.9,17.4,29.06,West,262,0.0,0.0,94,0.00,,,0.00,VWS V14.00,2013-01-16 10:01:00,
2013-01-16 05:06:00,19.0,17.6,29.06,West,263,0.0,0.0,94,0.00,,,0.00,VWS V14.00,2013-01-16 10:06:00,
2013-01-16 05:11:00,19.2,18.0,29.06,West,262,0.0,0.0,95,0.00,,,0.00,VWS V14.00,2013-01-16 10:11:00,
2013-01-16 05:16:00,19.2,18.0,29.06,West,263,0.0,0.0,95,0.00,,,0.00,VWS V14.00,2013-01-16 10:16:00,
2013-01-16 05:21:00,19.4,18.2,29.06,West,263,0.0,0.0,95,0.00,,,0.00,VWS V14.00,2013-01-16 10:21:00,
2013-01-16 05:26:00,19.4,18.2,29.06,West,262,0.0,0.0,95,0.00,,,0.00,VWS V14.00,2013-01-16 10:26:00,
2013-01-16 05:31:00,19.6,18.4,29.06,West,263,0.0,0.0,95,0.00,,,0.00,VWS V14.00,2013-01-16 10:31:00,
2013-01-16 05:36:00,19.6,18.4,29.06,West,262,0.0,0.0,95,0.00,,,0.00,VWS V14.00,2013-01-16 10:36:00,
2013-01-16 05:41:00,19.6,18.4,29.06,West,263,0.0,0.0,95,0.00,,,0.00,VWS V14.00,2013-01-16 10:41:00,
2013-01-16 05:46:00,19.8,18.6,29.03,West,263,0.0,0.0,95,0.00,,,0.00,VWS V14.00,2013-01-16 10:46:00,
2013-01-16 05:51:00,19.8,18.6,29.03,West,262,0.0,0.0,95,0.00,,,0.00,VWS V14.00,2013-01-16 10:51:00,
2013-01-16 05:56:00,19.9,18.7,29.03,West,263,0.0,0.0,95,0.00,,,0.00,VWS V14.00,2013-01-16 10:56:00,
2013-01-16 06:01:00,19.9,18.7,29.03,West,263,0.0,0.0,95,0.00,,,0.00,VWS V14.00,2013-01-16 11:01:00,
2013-01-16 06:06:00,19.9,18.7,29.03,West,263,0.0,0.0,95,0.00,,,0.00,VWS V14.00,2013-01-16 11:06:00,
2013-01-16 06:11:00,19.9,18.7,29.03,West,263,0.0,0.0,95,0.00,,,0.00,VWS V14.00,2013-01-16 11:11:00,
2013-01-16 06:16:00,19.9,18.7,29.03,West,262,0.0,0.0,95,0.00,,,0.00,VWS V14.00,2013-01-16 11:16:00,
2013-01-16 06:21:00,19.9,18.7,29.03,West,262,0.0,0.0,95,0.00,,,0.00,VWS V14.00,2013-01-16 11:21:00,
2013-01-16 06:26:00,19.9,18.5,29.03,West,263,0.0,0.0,94,0.00,,,0.00,VWS V14.00,2013-01-16 11:26:00,
2013-01-16 06:31:00,19.9,18.5,29.03,West,263,0.0,0.0,94,0.00,,,0.00,VWS V14.00,2013-01-16 11:31:00,
2013-01-16 06:36:00,19.9,18.5,29.03,West,262,0.0,0.0,94,0.00,,,0.00,VWS V14.00,2013-01-16 11:36:00,
2013-01-16 06:41:00,19.9,18.5,29.03,West,262,0.0,0.0,94,0.00,,,0.00,VWS V14.00,2013-01-16 11:41:00,
2013-01-16 06:46:00,19.9,18.5,29.00,West,262,0.0,0.0,94,0.00,,,0.00,VWS V14.00,2013-01-16 11:46:00,
2013-01-16 06:51:00,19.9,18.5,29.00,West,263,0.0,0.0,94,0.00,,,0.00,VWS V14.00,2013-01-16 11:51:00,
2013-01-16 06:56:00,19.9,18.5,29.00,West,263,0.0,0.0,94,0.00,,,0.00,VWS V14.00,2013-01-16 11:56:00,
2013-01-16 07:01:00,19.9,18.5,29.00,West,263,0.0,0.0,94,0.00,,,0.00,VWS V14.00,2013-01-16 12:01:00,
2013-01-16 07:06:00,19.9,18.5,29.00,West,262,0.0,0.0,94,0.00,,,0.00,VWS V14.00,2013-01-16 12:06:00,
2013-01-16 07:11:00,19.9,18.5,29.00,West,263,0.0,0.0,94,0.00,,,0.00,VWS V14.00,2013-01-16 12:11:00,
2013-01-16 07:16:00,19.9,18.5,29.00,West,262,0.0,0.0,94,0.00,,,0.00,VWS V14.00,2013-01-16 12:16:00,
2013-01-16 07:21:00,19.9,18.2,29.00,West,262,0.0,0.0,93,0.00,,,0.00,VWS V14.00,2013-01-16 12:21:00,
2013-01-16 07:26:00,19.9,18.2,29.00,West,263,0.0,0.0,93,0.00,,,0.00,VWS V14.00,2013-01-16 12:26:00,
2013-01-16 07:31:00,20.1,18.7,29.00,West,262,0.0,0.0,94,0.00,,,0.00,VWS V14.00,2013-01-16 12:31:00,
2013-01-16 07:36:00,19.9,18.5,29.00,West,263,0.0,0.0,94,0.00,,,0.00,VWS V14.00,2013-01-16 12:36:00,
2013-01-16 07:41:00,19.9,18.5,29.00,West,263,0.0,0.0,94,0.00,,,0.00,VWS V14.00,2013-01-16 12:41:00,
2013-01-16 07:46:00,19.8,18.3,29.00,West,262,0.0,0.0,94,0.00,,,0.00,VWS V14.00,2013-01-16 12:46:00,
2013-01-16 07:51:00,19.6,17.9,29.00,West,263,0.0,0.0,93,0.00,,,0.00,VWS V14.00,2013-01-16 12:51:00,
2013-01-16 07:56:00,19.6,17.9,29.00,West,263,0.0,0.0,93,0.00,,,0.00,VWS V14.00,2013-01-16 12:56:00,
2013-01-16 08:01:00,19.6,17.9,29.00,West,263,0.0,0.0,93,0.00,,,0.00,VWS V14.00,2013-01-16 13:01:00,
2013-01-16 08:06:00,19.4,18.0,29.00,West,263,0.0,0.0,94,0.00,,,0.00,VWS V14.00,2013-01-16 13:06:00,
2013-01-16 08:11:00,19.2,17.5,29.00,West,263,0.0,0.0,93,0.00,,,0.00,VWS V14.00,2013-01-16 13:11:00,
2013-01-16 08:16:00,19.2,17.5,29.00,West,262,0.0,0.0,93,0.00,,,0.00,VWS V14.00,2013-01-16 13:16:00,
2013-01-16 08:22:00,19.0,17.4,29.00,West,263,0.0,0.0,93,0.00,,,0.00,VWS V14.00,2013-01-16 13:22:00,
2013-01-16 08:27:00,18.9,17.2,29.00,West,263,0.0,0.0,93,0.00,,,0.00,VWS V14.00,2013-01-16 13:27:00,
2013-01-16 08:32:00,19.0,17.4,28.97,West,262,0.0,0.0,93,0.00,,,0.00,VWS V14.00,2013-01-16 13:32:00,
2013-01-16 08:36:00,19.2,17.5,28.97,West,263,0.0,0.0,93,0.00,,,0.00,VWS V14.00,2013-01-16 13:36:00,
2013-01-16 08:42:00,19.6,17.9,28.97,West,262,0.0,0.0,93,0.00,,,0.00,VWS V14.00,2013-01-16 13:42:00,
2013-01-16 08:47:00,19.9,18.5,28.97,West,263,0.0,0.0,94,0.00,,,0.00,VWS V14.00,2013-01-16 13:47:00,
2013-01-16 08:52:00,20.3,18.9,28.97,West,262,0.0,0.0,94,0.00,,,0.00,VWS V14.00,2013-01-16 13:52:00,
2013-01-16 08:57:00,20.7,19.5,28.97,West,263,0.0,0.0,95,0.00,,,0.00,VWS V14.00,2013-01-16 13:57:00,
2013-01-16 09:02:00,21.2,20.0,28.97,West,263,0.0,0.0,95,0.00,,,0.00,VWS V14.00,2013-01-16 14:02:00,
2013-01-16 09:07:00,21.9,20.7,28.97,SSW,198,0.0,0.0,95,0.00,,,0.00,VWS V14.00,2013-01-16 14:07:00,
2013-01-16 09:12:00,22.3,21.1,28.97,SSW,199,0.0,0.0,95,0.00,,,0.00,VWS V14.00,2013-01-16 14:12:00,
2013-01-16 09:17:00,22.8,21.6,28.97,SSW,199,0.0,0.0,95,0.00,,,0.00,VWS V14.00,2013-01-16 14:17:00,
2013-01-16 09:22:00,23.5,22.1,28.97,SSW,199,0.0,0.0,94,0.00,,,0.00,VWS V14.00,2013-01-16 14:22:00,
2013-01-16 09:27:00,23.9,22.4,28.97,West,271,4.0,4.0,94,0.00,,,0.00,VWS V14.00,2013-01-16 14:27:00,
2013-01-16 09:32:00,24.4,22.5,29.00,SSW,211,2.2,3.1,92,0.00,,,0.00,VWS V14.00,2013-01-16 14:32:00,
2013-01-16 09:37:00,25.0,22.7,29.00,SSW,211,0.0,3.1,91,0.00,,,0.00,VWS V14.00,2013-01-16 14:37:00,
2013-01-16 09:42:00,25.3,22.6,29.00,SW,233,2.2,6.3,89,0.00,,,0.00,VWS V14.00,2013-01-16 14:42:00,
2013-01-16 09:47:00,25.9,22.8,28.97,SSW,207,3.6,6.3,88,0.00,,,0.00,VWS V14.00,2013-01-16 14:47:00,
2013-01-16 09:52:00,26.1,22.7,28.97,South,189,0.0,6.3,87,0.00,,,0.00,VWS V14.00,2013-01-16 14:52:00,
2013-01-16 09:57:00,26.4,22.5,28.97,SW,218,0.0,6.3,85,0.00,,,0.00,VWS V14.00,2013-01-16 14:57:00,
2013-01-16 10:02:00,26.8,22.3,28.97,SSW,198,2.7,4.9,83,0.00,,,0.00,VWS V14.00,2013-01-16 15:02:00,
2013-01-16 10:07:00,27.0,21.9,28.97,SW,216,0.0,5.4,81,0.00,,,0.00,VWS V14.00,2013-01-16 15:07:00,
2013-01-16 10:12:00,27.5,22.1,28.97,WSW,250,3.6,7.2,80,0.00,,,0.00,VWS V14.00,2013-01-16 15:12:00,
2013-01-16 10:17:00,27.9,21.9,28.97,SW,216,5.4,7.6,78,0.00,,,0.00,VWS V14.00,2013-01-16 15:17:00,
2013-01-16 10:22:00,27.9,21.6,28.97,SSW,196,5.4,8.1,77,0.00,,,0.00,VWS V14.00,2013-01-16 15:22:00,
2013-01-16 10:27:00,28.6,22.0,28.97,SW,222,3.1,8.1,76,0.00,,,0.00,VWS V14.00,2013-01-16 15:27:00,
2013-01-16 10:32:00,28.9,22.0,28.97,West,275,8.1,9.6,75,0.00,,,0.00,VWS V14.00,2013-01-16 15:32:00,
2013-01-16 10:37:00,29.1,21.6,28.97,WSW,258,4.0,9.6,73,0.00,,,0.00,VWS V14.00,2013-01-16 15:37:00,
2013-01-16 10:42:00,29.5,21.9,28.97,SSE,167,4.0,9.6,73,0.00,,,0.00,VWS V14.00,2013-01-16 15:42:00,
2013-01-16 10:47:00,30.0,22.1,28.97,WSW,251,5.8,9.6,72,0.00,,,0.00,VWS V14.00,2013-01-16 15:47:00,
2013-01-16 10:52:00,30.6,22.6,28.97,SW,233,3.6,9.6,72,0.00,,,0.00,VWS V14.00,2013-01-16 15:52:00,
2013-01-16 10:57:00,30.7,22.1,28.97,WSW,252,2.7,9.6,70,0.00,,,0.00,VWS V14.00,2013-01-16 15:57:00,
2013-01-16 11:02:00,30.9,21.3,28.97,SW,235,0.0,6.3,67,0.00,,,0.00,VWS V14.00,2013-01-16 16:02:00,
2013-01-16 11:07:00,31.3,21.6,28.97,SW,221,3.6,6.7,67,0.00,,,0.00,VWS V14.00,2013-01-16 16:07:00,
2013-01-16 11:12:00,31.6,21.2,28.97,SW,236,6.3,8.1,65,0.00,,,0.00,VWS V14.00,2013-01-16 16:12:00,
2013-01-16 11:17:00,31.8,20.7,28.94,SSW,194,5.4,11.0,63,0.00,,,0.00,VWS V14.00,2013-01-16 16:17:00,
2013-01-16 11:22:00,32.5,21.4,28.94,SW,229,3.6,11.0,63,0.00,,,0.00,VWS V14.00,2013-01-16 16:22:00,
2013-01-16 11:27:00,32.7,20.8,28.94,SSW,211,2.2,11.0,61,0.00,,,0.00,VWS V14.00,2013-01-16 16:27:00,
2013-01-16 11:32:00,33.1,19.9,28.94,WSW,257,4.9,10.5,58,0.00,,,0.00,VWS V14.00,2013-01-16 16:32:00,
2013-01-16 11:37:00,32.9,18.1,28.94,SSW,198,4.0,11.0,54,0.00,,,0.00,VWS V14.00,2013-01-16 16:37:00,
2013-01-16 11:42:00,33.8,18.9,28.94,South,178,6.3,11.0,54,0.00,,,0.00,VWS V14.00,2013-01-16 16:42:00,
2013-01-16 11:47:00,34.0,18.7,28.94,SSW,213,3.1,11.0,53,0.00,,,0.00,VWS V14.00,2013-01-16 16:47:00,
2013-01-16 11:52:00,34.5,19.2,28.94,WSW,248,3.1,11.0,53,0.00,,,0.00,VWS V14.00,2013-01-16 16:52:00,
2013-01-16 11:57:00,34.9,19.5,28.94,WSW,241,3.6,11.0,53,0.00,,,0.00,VWS V14.00,2013-01-16 16:57:00,
2013-01-16 12:02:00,35.1,18.3,28.91,WSW,247,5.8,8.7,50,0.00,,,0.00,VWS V14.00,2013-01-16 17:02:00,
2013-01-16 12:07:00,35.4,18.6,28.91,SW,226,8.3,8.7,50,0.00,,,0.00,VWS V14.00,2013-01-16 17:07:00,
2013-01-16 12:12:00,35.4,18.6,28.91,SSW,212,3.1,10.5,50,0.00,,,0.00,VWS V14.00,2013-01-16 17:12:00,
2013-01-16 12:17:00,35.8,18.5,28.91,WNW,290,3.1,10.5,49,0.00,,,0.00,VWS V14.00,2013-01-16 17:17:00,
2013-01-16 12:22:00,35.8,18.5,28.91,SE,140,4.9,10.5,49,0.00,,,0.00,VWS V14.00,2013-01-16 17:22:00,
2013-01-16 12:27:00,35.8,18.0,28.91,South,182,4.9,10.5,48,0.00,,,0.00,VWS V14.00,2013-01-16 17:27:00,
2013-01-16 12:32:00,35.6,16.9,28.88,West,277,8.1,8.1,46,0.00,,,0.00,VWS V14.00,2013-01-16 17:32:00,
2013-01-16 12:37:00,35.8,17.5,28.88,South,169,5.4,8.7,47,0.00,,,0.00,VWS V14.00,2013-01-16 17:37:00,
2013-01-16 12:42:00,36.3,18.0,28.88,SW,222,5.8,10.5,47,0.00,,,0.00,VWS V14.00,2013-01-16 17:42:00,
2013-01-16 12:47:00,35.8,17.0,28.88,SW,230,4.0,10.5,46,0.00,,,0.00,VWS V14.00,2013-01-16 17:47:00,
2013-01-16 12:52:00,36.5,17.7,28.88,SSE,165,5.4,10.5,46,0.00,,,0.00,VWS V14.00,2013-01-16 17:52:00,
2013-01-16 12:57:00,36.5,17.2,28.88,SSW,200,5.8,10.5,45,0.00,,,0.00,VWS V14.00,2013-01-16 17:57:00,
2013-01-16 13:02:00,37.2,18.4,28.88,SW,232,7.6,7.6,46,0.00,,,0.00,VWS V14.00,2013-01-16 18:02:00,
2013-01-16 13:07:00,36.9,17.0,28.88,SW,219,12.3,12.3,44,0.00,,,0.00,VWS V14.00,2013-01-16 18:07:00,
2013-01-16 13:12:00,37.2,17.3,28.88,WSW,238,9.6,12.3,44,0.00,,,0.00,VWS V14.00,2013-01-16 18:12:00,
2013-01-16 13:17:00,37.2,16.8,28.85,WSW,241,5.8,12.3,43,0.00,,,0.00,VWS V14.00,2013-01-16 18:17:00,
2013-01-16 13:22:00,37.4,17.0,28.85,West,270,4.0,12.3,43,0.00,,,0.00,VWS V14.00,2013-01-16 18:22:00,
2013-01-16 13:27:00,37.9,18.0,28.85,SSW,213,2.2,12.3,44,0.00,,,0.00,VWS V14.00,2013-01-16 18:27:00,
2013-01-16 13:32:00,37.9,17.5,28.85,SSW,202,3.6,8.7,43,0.00,,,0.00,VWS V14.00,2013-01-16 18:32:00,
2013-01-16 13:38:00,38.3,17.8,28.85,SSW,211,8.3,8.7,43,0.00,,,0.00,VWS V14.00,2013-01-16 18:38:00,
2013-01-16 13:43:00,38.1,17.1,28.85,SSW,212,6.3,8.7,42,0.00,,,0.00,VWS V14.00,2013-01-16 18:43:00,
2013-01-16 13:48:00,38.1,17.1,28.85,WSW,239,7.6,11.4,42,0.00,,,0.00,VWS V14.00,2013-01-16 18:48:00,
2013-01-16 13:52:00,38.1,16.5,28.85,SW,226,5.8,11.4,41,0.00,,,0.00,VWS V14.00,2013-01-16 18:52:00,
2013-01-16 13:58:00,38.1,16.5,28.85,WSW,245,11.0,13.2,41,0.00,,,0.00,VWS V14.00,2013-01-16 18:58:00,
2013-01-16 14:03:00,38.3,16.7,28.85,WSW,239,3.6,7.2,41,0.00,,,0.00,VWS V14.00,2013-01-16 19:03:00,
2013-01-16 14:08:00,38.1,15.9,28.85,SSW,207,7.6,10.1,40,0.00,,,0.00,VWS V14.00,2013-01-16 19:08:00,
2013-01-16 14:13:00,38.5,16.8,28.85,SW,218,4.0,10.5,41,0.00,,,0.00,VWS V14.00,2013-01-16 19:13:00,
2013-01-16 14:18:00,38.5,16.8,28.85,West,264,6.3,10.5,41,0.00,,,0.00,VWS V14.00,2013-01-16 19:18:00,
2013-01-16 14:23:00,37.9,15.8,28.85,WSW,240,5.4,10.5,40,0.00,,,0.00,VWS V14.00,2013-01-16 19:23:00,
2013-01-16 14:28:00,38.3,16.1,28.85,West,265,5.8,12.3,40,0.00,,,0.00,VWS V14.00,2013-01-16 19:28:00,
2013-01-16 14:33:00,38.5,16.3,28.85,SW,217,4.9,8.7,40,0.00,,,0.00,VWS V14.00,2013-01-16 19:33:00,
2013-01-16 14:38:00,38.3,16.1,28.85,WSW,245,7.6,14.1,40,0.00,,,0.00,VWS V14.00,2013-01-16 19:38:00,
2013-01-16 14:43:00,38.3,16.1,28.85,SSW,196,5.8,14.1,40,0.00,,,0.00,VWS V14.00,2013-01-16 19:43:00,
2013-01-16 14:48:00,38.7,16.4,28.85,West,278,5.8,14.1,40,0.00,,,0.00,VWS V14.00,2013-01-16 19:48:00,
2013-01-16 14:53:00,38.5,16.3,28.85,SSW,195,11.0,14.1,40,0.00,,,0.00,VWS V14.00,2013-01-16 19:53:00,
2013-01-16 14:58:00,38.5,16.3,28.85,West,268,3.6,14.5,40,0.00,,,0.00,VWS V14.00,2013-01-16 19:58:00,
2013-01-16 15:03:00,38.7,16.4,28.85,WSW,241,4.0,12.3,40,0.00,,,0.00,VWS V14.00,2013-01-16 20:03:00,
2013-01-16 15:08:00,38.1,15.9,28.85,West,273,10.5,12.3,40,0.00,,,0.00,VWS V14.00,2013-01-16 20:08:00,
2013-01-16 15:13:00,37.8,15.6,28.85,West,278,3.6,12.3,40,0.00,,,0.00,VWS V14.00,2013-01-16 20:13:00,
2013-01-16 15:18:00,37.6,14.9,28.85,WNW,296,8.3,12.3,39,0.00,,,0.00,VWS V14.00,2013-01-16 20:18:00,
2013-01-16 15:23:00,37.8,15.6,28.85,SSW,195,8.1,13.2,40,0.00,,,0.00,VWS V14.00,2013-01-16 20:23:00,
2013-01-16 15:28:00,37.6,15.5,28.85,SSW,210,8.1,13.2,40,0.00,,,0.00,VWS V14.00,2013-01-16 20:28:00,
2013-01-16 15:33:00,37.4,15.3,28.82,SW,229,2.7,10.1,40,0.00,,,0.00,VWS V14.00,2013-01-16 20:33:00,
2013-01-16 15:38:00,37.0,15.0,28.82,West,268,5.4,15.0,40,0.00,,,0.00,VWS V14.00,2013-01-16 20:38:00,
2013-01-16 15:43:00,37.0,15.0,28.82,South,173,8.1,16.8,40,0.00,,,0.00,VWS V14.00,2013-01-16 20:43:00,
2013-01-16 15:48:00,36.9,14.8,28.82,WSW,252,6.7,16.8,40,0.00,,,0.00,VWS V14.00,2013-01-16 20:48:00,
2013-01-16 15:53:00,36.7,14.6,28.82,SSW,196,4.9,16.8,40,0.00,,,0.00,VWS V14.00,2013-01-16 20:53:00,
2013-01-16 15:58:00,36.3,14.3,28.82,West,278,4.0,16.8,40,0.00,,,0.00,VWS V14.00,2013-01-16 20:58:00,
2013-01-16 16:03:00,36.1,14.2,28.82,WNW,298,4.0,11.9,40,0.00,,,0.00,VWS V14.00,2013-01-16 21:03:00,
2013-01-16 16:08:00,35.8,13.8,28.82,WNW,283,3.6,12.3,40,0.00,,,0.00,VWS V14.00,2013-01-16 21:08:00,
2013-01-16 16:13:00,35.6,13.7,28.82,WSW,239,7.6,12.3,40,0.00,,,0.00,VWS V14.00,2013-01-16 21:13:00,
2013-01-16 16:18:00,35.6,13.7,28.85,WSW,243,3.1,12.3,40,0.00,,,0.00,VWS V14.00,2013-01-16 21:18:00,
2013-01-16 16:23:00,35.4,14.1,28.85,SSW,194,5.4,12.3,41,0.00,,,0.00,VWS V14.00,2013-01-16 21:23:00,
2013-01-16 16:28:00,35.2,13.9,28.85,WSW,258,3.1,12.3,41,0.00,,,0.00,VWS V14.00,2013-01-16 21:28:00,
2013-01-16 16:33:00,35.1,13.8,28.85,West,274,4.0,5.4,41,0.00,,,0.00,VWS V14.00,2013-01-16 21:33:00,
2013-01-16 16:38:00,35.1,14.3,28.85,West,275,12.8,12.8,42,0.00,,,0.00,VWS V14.00,2013-01-16 21:38:00,
2013-01-16 16:43:00,34.9,14.1,28.85,WSW,247,3.1,12.8,42,0.00,,,0.00,VWS V14.00,2013-01-16 21:43:00,
2013-01-16 16:48:00,34.9,14.1,28.85,SW,224,3.6,12.8,42,0.00,,,0.00,VWS V14.00,2013-01-16 21:48:00,
2013-01-16 16:53:00,34.7,14.0,28.85,West,262,6.3,12.8,42,0.00,,,0.00,VWS V14.00,2013-01-16 21:53:00,
2013-01-16 16:58:00,34.5,13.8,28.85,SW,219,3.6,17.0,42,0.00,,,0.00,VWS V14.00,2013-01-16 21:58:00,
2013-01-16 17:03:00,34.5,13.8,28.85,West,276,7.6,10.5,42,0.00,,,0.00,VWS V14.00,2013-01-16 22:03:00,
2013-01-16 17:08:00,34.3,13.6,28.85,West,261,3.1,10.5,42,0.00,,,0.00,VWS V14.00,2013-01-16 22:08:00,
2013-01-16 17:13:00,34.3,13.6,28.85,WNW,288,12.8,12.8,42,0.00,,,0.00,VWS V14.00,2013-01-16 22:13:00,
2013-01-16 17:18:00,34.3,13.6,28.85,SW,226,8.3,13.6,42,0.00,,,0.00,VWS V14.00,2013-01-16 22:18:00,
2013-01-16 17:23:00,34.2,13.5,28.85,SW,232,6.3,13.6,42,0.00,,,0.00,VWS V14.00,2013-01-16 22:23:00,
2013-01-16 17:28:00,34.2,14.0,28.85,South,189,5.8,13.6,43,0.00,,,0.00,VWS V14.00,2013-01-16 22:28:00,
2013-01-16 17:33:00,34.0,13.9,28.85,WSW,248,5.4,8.7,43,0.00,,,0.00,VWS V14.00,2013-01-16 22:33:00,
2013-01-16 17:38:00,34.0,13.9,28.85,West,272,0.0,8.7,43,0.00,,,0.00,VWS V14.00,2013-01-16 22:38:00,
2013-01-16 17:43:00,34.0,13.9,28.85,NW,326,2.2,11.0,43,0.00,,,0.00,VWS V14.00,2013-01-16 22:43:00,
2013-01-16 17:48:00,33.8,14.2,28.88,SSW,197,2.7,11.0,44,0.00,,,0.00,VWS V14.00,2013-01-16 22:48:00,
2013-01-16 17:53:00,33.8,14.2,28.88,WNW,289,5.8,11.0,44,0.00,,,0.00,VWS V14.00,2013-01-16 22:53:00,
2013-01-16 17:58:00,33.8,14.2,28.88,SW,223,8.1,11.0,44,0.00,,,0.00,VWS V14.00,2013-01-16 22:58:00,
2013-01-16 18:03:00,33.6,14.6,28.88,SW,214,14.5,14.5,45,0.00,,,0.00,VWS V14.00,2013-01-16 23:03:00,
2013-01-16 18:08:00,33.6,14.6,28.88,WNW,292,4.9,14.5,45,0.00,,,0.00,VWS V14.00,2013-01-16 23:08:00,
2013-01-16 18:13:00,33.6,14.6,28.88,WNW,282,7.6,14.5,45,0.00,,,0.00,VWS V14.00,2013-01-16 23:13:00,
2013-01-16 18:18:00,33.6,14.6,28.88,WSW,250,2.7,14.5,45,0.00,,,0.00,VWS V14.00,2013-01-16 23:18:00,
2013-01-16 18:23:00,33.4,14.4,28.88,WSW,245,4.0,14.5,45,0.00,,,0.00,VWS V14.00,2013-01-16 23:23:00,
2013-01-16 18:28:00,33.4,14.9,28.88,SW,219,3.1,14.5,46,0.00,,,0.00,VWS V14.00,2013-01-16 23:28:00,
2013-01-16 18:33:00,33.3,14.7,28.88,West,264,8.3,8.3,46,0.00,,,0.00,VWS V14.00,2013-01-16 23:33:00,
2013-01-16 18:38:00,33.1,15.1,28.88,West,260,3.6,8.3,47,0.00,,,0.00,VWS V14.00,2013-01-16 23:38:00,
2013-01-16 18:43:00,33.1,15.5,28.88,West,269,0.0,8.3,48,0.00,,,0.00,VWS V14.00,2013-01-16 23:43:00,
2013-01-16 18:48:00,33.1,15.5,28.88,West,274,5.4,8.3,48,0.00,,,0.00,VWS V14.00,2013-01-16 23:48:00,
2013-01-16 18:53:00,33.1,15.5,28.88,SW,232,4.9,12.3,48,0.00,,,0.00,VWS V14.00,2013-01-16 23:53:00,
2013-01-16 18:58:00,33.1,15.5,28.88,SSW,211,4.0,12.3,48,0.00,,,0.00,VWS V14.00,2013-01-16 23:58:00,
2013-01-16 19:03:00,33.1,16.0,28.88,WSW,240,0.0,6.3,49,0.00,,,0.00,VWS V14.00,2013-01-17 00:03:00,
2013-01-16 19:08:00,33.1,16.5,28.88,WSW,257,2.7,10.5,50,0.00,,,0.00,VWS V14.00,2013-01-17 00:08:00,
2013-01-16 19:13:00,33.1,16.5,28.88,SW,236,2.7,11.0,50,0.00,,,0.00,VWS V14.00,2013-01-17 00:13:00,
2013-01-16 19:18:00,33.1,16.5,28.91,West,276,2.7,11.0,50,0.00,,,0.00,VWS V14.00,2013-01-17 00:18:00,
2013-01-16 19:23:00,33.1,16.5,28.91,WSW,243,5.8,11.0,50,0.00,,,0.00,VWS V14.00,2013-01-17 00:23:00,
2013-01-16 19:28:00,33.1,16.9,28.91,SW,232,13.2,13.2,51,0.00,,,0.00,VWS V14.00,2013-01-17 00:28:00,
2013-01-16 19:33:00,33.1,16.5,28.91,SW,220,4.0,11.4,50,0.00,,,0.00,VWS V14.00,2013-01-17 00:33:00,
2013-01-16 19:38:00,33.1,16.9,28.91,SW,220,3.6,11.4,51,0.00,,,0.00,VWS V14.00,2013-01-17 00:38:00,
2013-01-16 19:43:00,33.1,16.9,28.91,SW,234,2.7,11.4,51,0.00,,,0.00,VWS V14.00,2013-01-17 00:43:00,
2013-01-16 19:48:00,33.1,16.9,28.91,West,261,7.6,11.4,51,0.00,,,0.00,VWS V14.00,2013-01-17 00:48:00,
2013-01-16 19:53:00,33.1,17.4,28.91,WNW,283,2.2,11.9,52,0.00,,,0.00,VWS V14.00,2013-01-17 00:53:00,
2013-01-16 19:58:00,33.1,17.4,28.91,NW,308,4.9,11.9,52,0.00,,,0.00,VWS V14.00,2013-01-17 00:58:00,
2013-01-16 20:03:00,33.1,17.4,28.91,WSW,250,7.6,11.0,52,0.00,,,0.00,VWS V14.00,2013-01-17 01:03:00,
2013-01-16 20:08:00,33.1,17.4,28.91,WSW,240,5.4,12.8,52,0.00,,,0.00,VWS V14.00,2013-01-17 01:08:00,
2013-01-16 20:13:00,33.1,17.4,28.91,NNE,17,2.7,12.8,52,0.00,,,0.00,VWS V14.00,2013-01-17 01:13:00,
2013-01-16 20:18:00,33.1,17.8,28.91,WSW,252,4.0,12.8,53,0.00,,,0.00,VWS V14.00,2013-01-17 01:18:00,
2013-01-16 20:23:00,33.1,17.8,28.91,West,274,5.8,12.8,53,0.00,,,0.00,VWS V14.00,2013-01-17 01:23:00,
2013-01-16 20:28:00,32.9,18.1,28.91,West,271,0.0,12.8,54,0.00,,,0.00,VWS V14.00,2013-01-17 01:28:00,
2013-01-16 20:33:00,33.1,18.3,28.91,WNW,289,3.1,10.1,54,0.00,,,0.00,VWS V14.00,2013-01-17 01:33:00,
2013-01-16 20:38:00,33.1,18.3,28.91,West,278,8.1,11.0,54,0.00,,,0.00,VWS V14.00,2013-01-17 01:38:00,
2013-01-16 20:43:00,33.1,18.7,28.91,West,275,5.8,14.5,55,0.00,,,0.00,VWS V14.00,2013-01-17 01:43:00,
2013-01-16 20:48:00,33.1,18.7,28.91,West,268,3.6,14.5,55,0.00,,,0.00,VWS V14.00,2013-01-17 01:48:00,
2013-01-16 20:53:00,33.1,19.1,28.91,WNW,288,3.6,14.5,56,0.00,,,0.00,VWS V14.00,2013-01-17 01:53:00,
2013-01-16 20:58:00,32.9,18.9,28.91,WNW,299,3.6,14.5,56,0.00,,,0.00,VWS V14.00,2013-01-17 01:58:00,
2013-01-16 21:03:00,32.9,19.4,28.94,WSW,241,5.8,15.0,57,0.00,,,0.00,VWS V14.00,2013-01-17 02:03:00,
2013-01-16 21:08:00,32.9,19.8,28.94,West,265,10.5,15.0,58,0.00,,,0.00,VWS V14.00,2013-01-17 02:08:00,
2013-01-16 21:13:00,32.9,20.2,28.94,West,276,11.0,15.0,59,0.00,,,0.00,VWS V14.00,2013-01-17 02:13:00,
2013-01-16 21:18:00,32.9,20.2,28.94,WSW,249,10.5,15.0,59,0.00,,,0.00,VWS V14.00,2013-01-17 02:18:00,
2013-01-16 21:23:00,32.9,20.5,28.94,West,274,3.6,15.0,60,0.00,,,0.00,VWS V14.00,2013-01-17 02:23:00,
2013-01-16 21:28:00,32.7,20.4,28.94,WSW,250,6.7,15.0,60,0.00,,,0.00,VWS V14.00,2013-01-17 02:28:00,
2013-01-16 21:33:00,32.7,20.8,28.94,SW,218,4.0,12.3,61,0.00,,,0.00,VWS V14.00,2013-01-17 02:33:00,
2013-01-16 21:38:00,32.7,21.1,28.94,WSW,253,7.6,12.3,62,0.00,,,0.00,VWS V14.00,2013-01-17 02:38:00,
2013-01-16 21:43:00,32.7,21.5,28.94,WNW,282,9.6,12.3,63,0.00,,,0.00,VWS V14.00,2013-01-17 02:43:00,
2013-01-16 21:48:00,32.7,21.9,28.94,SSW,212,4.9,12.3,64,0.00,,,0.00,VWS V14.00,2013-01-17 02:48:00,
2013-01-16 21:53:00,32.7,22.3,28.94,West,269,7.6,12.3,65,0.00,,,0.00,VWS V14.00,2013-01-17 02:53:00,
2013-01-16 21:58:00,32.7,22.3,28.94,West,273,4.0,12.3,65,0.00,,,0.00,VWS V14.00,2013-01-17 02:58:00,
2013-01-16 22:04:00,32.7,22.6,28.94,WNW,300,6.3,8.1,66,0.00,,,0.00,VWS V14.00,2013-01-17 03:04:00,
2013-01-16 22:09:00,32.7,23.0,28.94,WNW,303,7.6,8.1,67,0.00,,,0.00,VWS V14.00,2013-01-17 03:09:00,
2013-01-16 22:14:00,32.7,23.0,28.94,West,259,5.4,10.5,67,0.00,,,0.00,VWS V14.00,2013-01-17 03:14:00,
2013-01-16 22:19:00,32.7,23.3,28.94,West,272,5.4,15.4,68,0.00,,,0.00,VWS V14.00,2013-01-17 03:19:00,
2013-01-16 22:24:00,32.7,23.3,28.94,WSW,248,0.0,15.4,68,0.00,,,0.00,VWS V14.00,2013-01-17 03:24:00,
2013-01-16 22:29:00,32.7,23.7,28.94,NW,315,4.0,15.4,69,0.00,,,0.00,VWS V14.00,2013-01-17 03:29:00,
2013-01-16 22:34:00,32.9,23.9,28.94,WNW,288,3.6,8.3,69,0.00,,,0.00,VWS V14.00,2013-01-17 03:34:00,
2013-01-16 22:39:00,32.9,24.2,28.94,WSW,255,3.6,8.3,70,0.00,,,0.00,VWS V14.00,2013-01-17 03:39:00,
2013-01-16 22:44:00,32.9,24.5,28.94,WNW,294,3.6,11.9,71,0.00,,,0.00,VWS V14.00,2013-01-17 03:44:00,
2013-01-16 22:49:00,32.9,24.9,28.94,WSW,238,5.8,12.3,72,0.00,,,0.00,VWS V14.00,2013-01-17 03:49:00,
2013-01-16 22:54:00,33.1,25.0,28.94,West,260,4.0,12.3,72,0.00,,,0.00,VWS V14.00,2013-01-17 03:54:00,
2013-01-16 22:59:00,33.1,25.4,28.94,West,265,2.7,13.2,73,0.00,,,0.00,VWS V14.00,2013-01-17 03:59:00,
2013-01-16 23:04:00,33.1,25.4,28.94,WNW,284,5.4,10.1,73,0.00,,,0.00,VWS V14.00,2013-01-17 04:04:00,
2013-01-16 23:09:00,33.1,25.4,28.94,West,263,4.9,10.5,73,0.00,,,0.00,VWS V14.00,2013-01-17 04:09:00,
2013-01-16 23:14:00,33.1,25.4,28.97,WNW,299,5.8,11.9,73,0.00,,,0.00,VWS V14.00,2013-01-17 04:14:00,
2013-01-16 23:19:00,33.1,25.4,28.97,West,265,6.3,11.9,73,0.00,,,0.00,VWS V14.00,2013-01-17 04:19:00,
2013-01-16 23:24:00,33.1,25.4,28.97,NW,315,3.6,11.9,73,0.00,,,0.00,VWS V14.00,2013-01-17 04:24:00,
2013-01-16 23:29:00,33.1,25.7,28.97,WSW,251,5.8,11.9,74,0.00,,,0.00,VWS V14.00,2013-01-17 04:29:00,
2013-01-16 23:34:00,33.1,25.7,28.97,WNW,282,3.1,7.6,74,0.00,,,0.00,VWS V14.00,2013-01-17 04:34:00,
2013-01-16 23:39:00,33.1,25.7,28.97,NNW,327,3.6,7.6,74,0.00,,,0.00,VWS V14.00,2013-01-17 04:39:00,
2013-01-16 23:44:00,33.1,25.7,28.97,West,268,3.1,10.5,74,0.00,,,0.00,VWS V14.00,2013-01-17 04:44:00,
2013-01-16 23:49:00,33.1,25.7,28.97,WNW,291,4.0,11.0,74,0.00,,,0.00,VWS V14.00,2013-01-17 04:49:00,
2013-01-16 23:54:00,33.1,25.7,28.97,West,280,2.7,11.0,74,0.00,,,0.00,VWS V14.00,2013-01-17 04:54:00,
2013-01-16 23:59:00,33.1,26.0,28.97,WNW,298,9.2,11.0,75,0.00,,,0.00,VWS V14.00,2013-01-17 04:59:00,